sensor_id;sensor_type;location;lat;lon;timestamp;temperature;humidity
490;DHT22;231;48.120;11.576;2023-04-03T00:01:09;2.30;99.90
490;DHT22;231;48.120;11.576;2023-04-03T00:03:36;2.30;99.90
490;DHT22;231;48.120;11.576;2023-04-03T00:06:05;2.30;99.90
490;DHT22;231;48.120;11.576;2023-04-03T00:08:33;2.30;99.90
490;DHT22;231;48.120;11.576;2023-04-03T00:11:01;2.30;99.90
490;DHT22;231;48.120;11.576;2023-04-03T00:13:28;2.30;99.90
490;DHT22;231;48.120;11.576;2023-04-03T00:15:55;2.30;99.90
490;DHT22;231;48.120;11.576;2023-04-03T00:18:22;2.30;99.90
490;DHT22;231;48.120;11.576;2023-04-03T00:20:49;2.30;99.90
490;DHT22;231;48.120;11.576;2023-04-03T00:23:16;2.30;99.90
490;DHT22;231;48.120;11.576;2023-04-03T00:25:43;2.30;99.90
490;DHT22;231;48.120;11.576;2023-04-03T00:28:12;2.40;99.90
490;DHT22;231;48.120;11.576;2023-04-03T00:30:39;2.40;99.90
490;DHT22;231;48.120;11.576;2023-04-03T00:33:06;2.40;99.90
490;DHT22;231;48.120;11.576;2023-04-03T00:35:34;2.40;99.90
490;DHT22;231;48.120;11.576;2023-04-03T00:38:01;2.40;99.90
490;DHT22;231;48.120;11.576;2023-04-03T00:40:32;2.40;99.90
490;DHT22;231;48.120;11.576;2023-04-03T00:43:05;2.40;99.90
490;DHT22;231;48.120;11.576;2023-04-03T00:45:38;2.40;99.90
490;DHT22;231;48.120;11.576;2023-04-03T00:48:07;2.30;99.90
490;DHT22;231;48.120;11.576;2023-04-03T00:50:38;2.30;99.90
490;DHT22;231;48.120;11.576;2023-04-03T00:53:08;2.30;99.90
490;DHT22;231;48.120;11.576;2023-04-03T00:55:37;2.30;99.90
490;DHT22;231;48.120;11.576;2023-04-03T00:58:05;2.20;99.90
490;DHT22;231;48.120;11.576;2023-04-03T01:00:37;2.20;99.90
490;DHT22;231;48.120;11.576;2023-04-03T01:03:05;2.20;99.90
490;DHT22;231;48.120;11.576;2023-04-03T01:05:32;2.20;99.90
490;DHT22;231;48.120;11.576;2023-04-03T01:07:59;2.20;99.90
490;DHT22;231;48.120;11.576;2023-04-03T01:10:27;2.10;99.90
490;DHT22;231;48.120;11.576;2023-04-03T01:12:54;2.20;99.90
490;DHT22;231;48.120;11.576;2023-04-03T01:15:22;2.20;99.90
490;DHT22;231;48.120;11.576;2023-04-03T01:17:52;2.20;99.90
490;DHT22;231;48.120;11.576;2023-04-03T01:23:36;2.20;99.90
490;DHT22;231;48.120;11.576;2023-04-03T01:26:04;2.20;99.90
490;DHT22;231;48.120;11.576;2023-04-03T01:28:33;2.20;99.90
490;DHT22;231;48.120;11.576;2023-04-03T01:31:05;2.20;99.90
490;DHT22;231;48.120;11.576;2023-04-03T01:33:35;2.20;99.90
490;DHT22;231;48.120;11.576;2023-04-03T01:36:04;2.20;99.90
490;DHT22;231;48.120;11.576;2023-04-03T01:38:31;2.20;99.90
490;DHT22;231;48.120;11.576;2023-04-03T01:40:58;2.30;99.90
490;DHT22;231;48.120;11.576;2023-04-03T01:43:25;2.30;99.90
490;DHT22;231;48.120;11.576;2023-04-03T01:45:52;2.20;99.90
490;DHT22;231;48.120;11.576;2023-04-03T01:48:20;2.20;99.90
490;DHT22;231;48.120;11.576;2023-04-03T01:50:48;2.20;99.90
490;DHT22;231;48.120;11.576;2023-04-03T01:53:15;2.30;99.90
490;DHT22;231;48.120;11.576;2023-04-03T01:55:42;2.30;99.90
490;DHT22;231;48.120;11.576;2023-04-03T01:58:09;2.40;99.90
490;DHT22;231;48.120;11.576;2023-04-03T02:00:35;2.40;99.90
490;DHT22;231;48.120;11.576;2023-04-03T02:03:03;2.50;99.90
490;DHT22;231;48.120;11.576;2023-04-03T02:05:29;2.40;99.90
490;DHT22;231;48.120;11.576;2023-04-03T02:07:58;2.40;99.90
490;DHT22;231;48.120;11.576;2023-04-03T02:10:25;2.30;99.90
490;DHT22;231;48.120;11.576;2023-04-03T02:12:52;2.20;99.90
490;DHT22;231;48.120;11.576;2023-04-03T02:15:18;2.20;99.90
490;DHT22;231;48.120;11.576;2023-04-03T02:17:46;2.20;99.90
490;DHT22;231;48.120;11.576;2023-04-03T02:20:13;2.20;99.90
490;DHT22;231;48.120;11.576;2023-04-03T02:22:40;2.20;99.90
490;DHT22;231;48.120;11.576;2023-04-03T02:25:08;2.30;99.90
490;DHT22;231;48.120;11.576;2023-04-03T02:27:36;2.30;99.90
490;DHT22;231;48.120;11.576;2023-04-03T02:30:03;2.30;99.90
490;DHT22;231;48.120;11.576;2023-04-03T02:32:30;2.30;99.90
490;DHT22;231;48.120;11.576;2023-04-03T02:34:57;2.40;99.90
490;DHT22;231;48.120;11.576;2023-04-03T02:37:24;2.30;99.90
490;DHT22;231;48.120;11.576;2023-04-03T02:39:51;2.30;99.90
490;DHT22;231;48.120;11.576;2023-04-03T02:42:19;2.30;99.90
490;DHT22;231;48.120;11.576;2023-04-03T02:44:46;2.30;99.90
490;DHT22;231;48.120;11.576;2023-04-03T02:47:13;2.30;99.90
490;DHT22;231;48.120;11.576;2023-04-03T02:49:39;2.30;99.90
490;DHT22;231;48.120;11.576;2023-04-03T02:52:06;2.30;99.90
490;DHT22;231;48.120;11.576;2023-04-03T02:54:33;2.30;99.90
490;DHT22;231;48.120;11.576;2023-04-03T02:57:00;2.30;99.90
490;DHT22;231;48.120;11.576;2023-04-03T02:59:29;2.20;99.90
490;DHT22;231;48.120;11.576;2023-04-03T03:01:56;2.20;99.90
490;DHT22;231;48.120;11.576;2023-04-03T03:04:22;2.30;99.90
490;DHT22;231;48.120;11.576;2023-04-03T03:06:49;2.20;99.90
490;DHT22;231;48.120;11.576;2023-04-03T03:09:16;2.20;99.90
490;DHT22;231;48.120;11.576;2023-04-03T03:11:43;2.20;99.90
490;DHT22;231;48.120;11.576;2023-04-03T03:14:10;2.20;99.90
490;DHT22;231;48.120;11.576;2023-04-03T03:16:38;2.20;99.90
490;DHT22;231;48.120;11.576;2023-04-03T03:19:05;2.20;99.90
490;DHT22;231;48.120;11.576;2023-04-03T03:21:32;2.20;99.90
490;DHT22;231;48.120;11.576;2023-04-03T03:23:59;2.20;99.90
490;DHT22;231;48.120;11.576;2023-04-03T03:26:26;2.20;99.90
490;DHT22;231;48.120;11.576;2023-04-03T03:28:53;2.20;99.90
490;DHT22;231;48.120;11.576;2023-04-03T03:31:19;2.20;99.90
490;DHT22;231;48.120;11.576;2023-04-03T03:33:48;2.20;99.90
490;DHT22;231;48.120;11.576;2023-04-03T03:36:14;2.20;99.90
490;DHT22;231;48.120;11.576;2023-04-03T03:38:41;2.10;99.90
490;DHT22;231;48.120;11.576;2023-04-03T03:41:08;2.10;99.90
490;DHT22;231;48.120;11.576;2023-04-03T03:43:35;2.10;99.90
490;DHT22;231;48.120;11.576;2023-04-03T03:46:01;2.20;99.90
490;DHT22;231;48.120;11.576;2023-04-03T03:48:28;2.20;99.90
490;DHT22;231;48.120;11.576;2023-04-03T03:50:57;2.20;99.90
490;DHT22;231;48.120;11.576;2023-04-03T03:53:24;2.20;99.90
490;DHT22;231;48.120;11.576;2023-04-03T03:55:51;2.20;99.90
490;DHT22;231;48.120;11.576;2023-04-03T03:58:17;2.20;99.90
490;DHT22;231;48.120;11.576;2023-04-03T04:00:44;2.20;99.90
490;DHT22;231;48.120;11.576;2023-04-03T04:03:11;2.20;99.90
490;DHT22;231;48.120;11.576;2023-04-03T04:05:38;2.20;99.90
490;DHT22;231;48.120;11.576;2023-04-03T04:08:07;2.30;99.90
490;DHT22;231;48.120;11.576;2023-04-03T04:10:34;2.20;99.90
490;DHT22;231;48.120;11.576;2023-04-03T04:13:01;2.20;99.90
490;DHT22;231;48.120;11.576;2023-04-03T04:15:28;2.20;99.90
490;DHT22;231;48.120;11.576;2023-04-03T04:17:55;2.20;99.90
490;DHT22;231;48.120;11.576;2023-04-03T04:20:22;2.10;99.90
490;DHT22;231;48.120;11.576;2023-04-03T04:22:49;2.10;99.90
490;DHT22;231;48.120;11.576;2023-04-03T04:25:18;2.00;99.90
490;DHT22;231;48.120;11.576;2023-04-03T04:27:44;2.00;99.90
490;DHT22;231;48.120;11.576;2023-04-03T04:30:12;2.00;99.90
490;DHT22;231;48.120;11.576;2023-04-03T04:32:39;2.00;99.90
490;DHT22;231;48.120;11.576;2023-04-03T04:35:07;2.00;99.90
490;DHT22;231;48.120;11.576;2023-04-03T04:37:33;2.00;99.90
490;DHT22;231;48.120;11.576;2023-04-03T04:40:00;2.10;99.90
490;DHT22;231;48.120;11.576;2023-04-03T04:42:29;2.10;99.90
490;DHT22;231;48.120;11.576;2023-04-03T04:44:56;2.10;99.90
490;DHT22;231;48.120;11.576;2023-04-03T04:47:22;2.10;99.90
490;DHT22;231;48.120;11.576;2023-04-03T04:49:49;2.10;99.90
490;DHT22;231;48.120;11.576;2023-04-03T04:52:16;2.10;99.90
490;DHT22;231;48.120;11.576;2023-04-03T04:54:44;2.10;99.90
490;DHT22;231;48.120;11.576;2023-04-03T04:57:11;2.10;99.90
490;DHT22;231;48.120;11.576;2023-04-03T04:59:39;2.10;99.90
490;DHT22;231;48.120;11.576;2023-04-03T05:02:06;2.10;99.90
490;DHT22;231;48.120;11.576;2023-04-03T05:04:33;2.10;99.90
490;DHT22;231;48.120;11.576;2023-04-03T05:07:00;2.20;99.90
490;DHT22;231;48.120;11.576;2023-04-03T05:09:26;2.20;99.90
490;DHT22;231;48.120;11.576;2023-04-03T05:11:53;2.20;99.90
490;DHT22;231;48.120;11.576;2023-04-03T05:14:21;2.20;99.90
490;DHT22;231;48.120;11.576;2023-04-03T05:16:50;2.20;99.90
490;DHT22;231;48.120;11.576;2023-04-03T05:19:19;2.20;99.90
490;DHT22;231;48.120;11.576;2023-04-03T05:21:46;2.20;99.90
490;DHT22;231;48.120;11.576;2023-04-03T05:24:13;2.20;99.90
490;DHT22;231;48.120;11.576;2023-04-03T05:26:40;2.20;99.90
490;DHT22;231;48.120;11.576;2023-04-03T05:29:07;2.20;99.90
490;DHT22;231;48.120;11.576;2023-04-03T05:31:34;2.20;99.90
490;DHT22;231;48.120;11.576;2023-04-03T05:34:02;2.20;99.90
490;DHT22;231;48.120;11.576;2023-04-03T05:36:29;2.30;99.90
490;DHT22;231;48.120;11.576;2023-04-03T05:38:56;2.30;99.90
490;DHT22;231;48.120;11.576;2023-04-03T05:41:23;2.30;99.90
490;DHT22;231;48.120;11.576;2023-04-03T05:43:50;2.30;99.90
490;DHT22;231;48.120;11.576;2023-04-03T05:46:19;2.30;99.90
490;DHT22;231;48.120;11.576;2023-04-03T05:48:46;2.40;99.90
490;DHT22;231;48.120;11.576;2023-04-03T05:51:17;2.40;99.90
490;DHT22;231;48.120;11.576;2023-04-03T05:53:44;2.50;99.90
490;DHT22;231;48.120;11.576;2023-04-03T05:56:12;2.50;99.90
490;DHT22;231;48.120;11.576;2023-04-03T05:58:39;2.50;99.90
490;DHT22;231;48.120;11.576;2023-04-03T06:01:06;2.60;99.90
490;DHT22;231;48.120;11.576;2023-04-03T06:03:33;2.60;99.90
490;DHT22;231;48.120;11.576;2023-04-03T06:06:02;2.70;99.90
490;DHT22;231;48.120;11.576;2023-04-03T06:08:31;2.70;99.90
490;DHT22;231;48.120;11.576;2023-04-03T06:10:58;2.80;99.90
490;DHT22;231;48.120;11.576;2023-04-03T06:13:25;2.80;99.90
490;DHT22;231;48.120;11.576;2023-04-03T06:15:52;2.80;99.90
490;DHT22;231;48.120;11.576;2023-04-03T06:18:19;2.80;99.90
490;DHT22;231;48.120;11.576;2023-04-03T06:20:46;2.80;99.90
490;DHT22;231;48.120;11.576;2023-04-03T06:23:13;2.90;99.90
490;DHT22;231;48.120;11.576;2023-04-03T06:25:41;2.90;99.90
490;DHT22;231;48.120;11.576;2023-04-03T06:28:08;3.00;99.90
490;DHT22;231;48.120;11.576;2023-04-03T06:30:36;3.10;99.90
490;DHT22;231;48.120;11.576;2023-04-03T06:33:03;3.20;99.90
490;DHT22;231;48.120;11.576;2023-04-03T06:35:30;3.30;99.90
490;DHT22;231;48.120;11.576;2023-04-03T06:37:57;3.40;99.90
490;DHT22;231;48.120;11.576;2023-04-03T06:40:25;3.50;99.90
490;DHT22;231;48.120;11.576;2023-04-03T06:42:54;3.50;99.90
490;DHT22;231;48.120;11.576;2023-04-03T06:45:21;3.60;99.90
490;DHT22;231;48.120;11.576;2023-04-03T06:47:47;3.60;99.90
490;DHT22;231;48.120;11.576;2023-04-03T06:50:14;3.60;99.90
490;DHT22;231;48.120;11.576;2023-04-03T06:52:42;3.50;99.90
490;DHT22;231;48.120;11.576;2023-04-03T06:55:09;3.40;99.90
490;DHT22;231;48.120;11.576;2023-04-03T06:57:37;3.40;99.90
490;DHT22;231;48.120;11.576;2023-04-03T07:00:06;3.50;99.90
490;DHT22;231;48.120;11.576;2023-04-03T07:02:34;3.60;99.90
490;DHT22;231;48.120;11.576;2023-04-03T07:05:01;3.70;99.90
490;DHT22;231;48.120;11.576;2023-04-03T07:07:28;3.80;99.90
490;DHT22;231;48.120;11.576;2023-04-03T07:09:55;3.90;99.90
490;DHT22;231;48.120;11.576;2023-04-03T07:12:22;4.00;99.90
490;DHT22;231;48.120;11.576;2023-04-03T07:14:49;4.00;99.90
490;DHT22;231;48.120;11.576;2023-04-03T07:17:17;4.10;99.90
490;DHT22;231;48.120;11.576;2023-04-03T07:19:44;4.10;99.90
490;DHT22;231;48.120;11.576;2023-04-03T07:22:11;4.10;99.90
490;DHT22;231;48.120;11.576;2023-04-03T07:24:38;4.10;99.90
490;DHT22;231;48.120;11.576;2023-04-03T07:27:05;4.20;99.90
490;DHT22;231;48.120;11.576;2023-04-03T07:29:34;4.30;99.90
490;DHT22;231;48.120;11.576;2023-04-03T07:32:01;4.40;99.90
490;DHT22;231;48.120;11.576;2023-04-03T07:34:29;4.60;99.90
490;DHT22;231;48.120;11.576;2023-04-03T07:36:57;4.80;99.90
490;DHT22;231;48.120;11.576;2023-04-03T07:39:24;4.90;99.90
490;DHT22;231;48.120;11.576;2023-04-03T07:41:51;4.90;99.90
490;DHT22;231;48.120;11.576;2023-04-03T07:44:18;4.80;99.90
490;DHT22;231;48.120;11.576;2023-04-03T07:46:45;4.70;99.90
490;DHT22;231;48.120;11.576;2023-04-03T07:49:12;4.80;99.90
490;DHT22;231;48.120;11.576;2023-04-03T07:51:40;4.80;99.90
490;DHT22;231;48.120;11.576;2023-04-03T07:54:07;4.80;99.90
490;DHT22;231;48.120;11.576;2023-04-03T07:56:34;4.60;99.90
490;DHT22;231;48.120;11.576;2023-04-03T07:59:01;4.60;99.90
490;DHT22;231;48.120;11.576;2023-04-03T08:01:28;4.60;99.90
490;DHT22;231;48.120;11.576;2023-04-03T08:03:57;4.70;99.90
490;DHT22;231;48.120;11.576;2023-04-03T08:06:24;4.60;99.90
490;DHT22;231;48.120;11.576;2023-04-03T08:08:52;4.70;99.90
490;DHT22;231;48.120;11.576;2023-04-03T08:11:19;4.70;99.90
490;DHT22;231;48.120;11.576;2023-04-03T08:13:46;4.70;99.90
490;DHT22;231;48.120;11.576;2023-04-03T08:16:17;4.80;99.90
490;DHT22;231;48.120;11.576;2023-04-03T08:18:44;4.80;99.90
490;DHT22;231;48.120;11.576;2023-04-03T08:21:12;4.80;99.90
490;DHT22;231;48.120;11.576;2023-04-03T08:23:41;4.90;99.90
490;DHT22;231;48.120;11.576;2023-04-03T08:26:12;5.00;99.90
490;DHT22;231;48.120;11.576;2023-04-03T08:28:39;5.20;99.90
490;DHT22;231;48.120;11.576;2023-04-03T08:31:09;5.30;99.90
490;DHT22;231;48.120;11.576;2023-04-03T08:33:38;5.50;99.90
490;DHT22;231;48.120;11.576;2023-04-03T08:36:06;5.60;99.90
490;DHT22;231;48.120;11.576;2023-04-03T08:38:34;5.80;99.90
490;DHT22;231;48.120;11.576;2023-04-03T08:41:13;6.00;99.90
490;DHT22;231;48.120;11.576;2023-04-03T08:43:53;6.10;99.90
490;DHT22;231;48.120;11.576;2023-04-03T08:46:26;6.20;99.90
490;DHT22;231;48.120;11.576;2023-04-03T08:48:57;6.30;99.90
490;DHT22;231;48.120;11.576;2023-04-03T08:51:26;6.30;99.90
490;DHT22;231;48.120;11.576;2023-04-03T08:53:58;6.30;99.90
490;DHT22;231;48.120;11.576;2023-04-03T08:56:33;6.30;99.90
490;DHT22;231;48.120;11.576;2023-04-03T08:59:06;6.20;99.90
490;DHT22;231;48.120;11.576;2023-04-03T09:01:39;6.30;99.90
490;DHT22;231;48.120;11.576;2023-04-03T09:04:11;6.30;99.90
490;DHT22;231;48.120;11.576;2023-04-03T09:06:39;6.30;99.90
490;DHT22;231;48.120;11.576;2023-04-03T09:09:14;6.40;99.90
490;DHT22;231;48.120;11.576;2023-04-03T09:11:51;6.50;99.90
490;DHT22;231;48.120;11.576;2023-04-03T09:14:28;6.30;98.20
490;DHT22;231;48.120;11.576;2023-04-03T09:16:59;6.40;99.90
490;DHT22;231;48.120;11.576;2023-04-03T09:19:35;6.50;99.90
490;DHT22;231;48.120;11.576;2023-04-03T09:22:16;6.50;99.90
490;DHT22;231;48.120;11.576;2023-04-03T09:24:46;6.40;99.90
490;DHT22;231;48.120;11.576;2023-04-03T09:27:15;6.30;97.20
490;DHT22;231;48.120;11.576;2023-04-03T09:29:43;6.40;98.70
490;DHT22;231;48.120;11.576;2023-04-03T09:32:26;6.50;99.90
490;DHT22;231;48.120;11.576;2023-04-03T09:34:56;6.90;99.90
490;DHT22;231;48.120;11.576;2023-04-03T09:37:38;6.90;99.90
490;DHT22;231;48.120;11.576;2023-04-03T09:40:12;7.00;99.90
490;DHT22;231;48.120;11.576;2023-04-03T09:42:57;7.10;99.90
490;DHT22;231;48.120;11.576;2023-04-03T09:45:27;6.80;89.80
490;DHT22;231;48.120;11.576;2023-04-03T09:48:13;6.50;83.80
490;DHT22;231;48.120;11.576;2023-04-03T09:50:54;6.30;87.70
490;DHT22;231;48.120;11.576;2023-04-03T09:53:35;6.10;92.60
490;DHT22;231;48.120;11.576;2023-04-03T09:56:09;5.90;94.90
490;DHT22;231;48.120;11.576;2023-04-03T09:58:48;5.70;95.90
490;DHT22;231;48.120;11.576;2023-04-03T10:01:25;5.80;99.90
490;DHT22;231;48.120;11.576;2023-04-03T10:04:08;6.10;99.90
490;DHT22;231;48.120;11.576;2023-04-03T10:06:37;6.40;99.90
490;DHT22;231;48.120;11.576;2023-04-03T10:09:17;6.60;99.90
490;DHT22;231;48.120;11.576;2023-04-03T10:11:59;6.70;99.90
490;DHT22;231;48.120;11.576;2023-04-03T10:14:29;6.50;99.90
490;DHT22;231;48.120;11.576;2023-04-03T10:17:03;6.50;99.90
490;DHT22;231;48.120;11.576;2023-04-03T10:19:40;6.50;99.90
490;DHT22;231;48.120;11.576;2023-04-03T10:22:18;6.50;99.90
490;DHT22;231;48.120;11.576;2023-04-03T10:24:57;6.20;93.20
490;DHT22;231;48.120;11.576;2023-04-03T10:27:36;5.90;87.90
490;DHT22;231;48.120;11.576;2023-04-03T10:30:21;5.50;84.30
490;DHT22;231;48.120;11.576;2023-04-03T10:33:00;5.30;92.10
490;DHT22;231;48.120;11.576;2023-04-03T10:35:42;5.20;96.40
490;DHT22;231;48.120;11.576;2023-04-03T10:38:17;4.90;94.80
490;DHT22;231;48.120;11.576;2023-04-03T10:40:52;4.50;94.90
490;DHT22;231;48.120;11.576;2023-04-03T10:43:29;4.30;95.10
490;DHT22;231;48.120;11.576;2023-04-03T10:46:04;4.10;92.40
490;DHT22;231;48.120;11.576;2023-04-03T10:48:43;3.90;93.10
490;DHT22;231;48.120;11.576;2023-04-03T10:51:23;3.80;95.10
490;DHT22;231;48.120;11.576;2023-04-03T10:53:56;3.80;99.90
490;DHT22;231;48.120;11.576;2023-04-03T10:56:31;3.80;98.30
490;DHT22;231;48.120;11.576;2023-04-03T10:59:05;3.70;95.10
490;DHT22;231;48.120;11.576;2023-04-03T11:01:37;3.60;99.90
490;DHT22;231;48.120;11.576;2023-04-03T11:04:06;3.40;99.50
490;DHT22;231;48.120;11.576;2023-04-03T11:06:37;3.40;99.90
490;DHT22;231;48.120;11.576;2023-04-03T11:09:12;3.40;99.90
490;DHT22;231;48.120;11.576;2023-04-03T11:11:43;3.50;99.90
490;DHT22;231;48.120;11.576;2023-04-03T11:14:11;3.50;99.90
490;DHT22;231;48.120;11.576;2023-04-03T11:16:46;3.50;99.90
490;DHT22;231;48.120;11.576;2023-04-03T11:19:18;3.60;99.90
490;DHT22;231;48.120;11.576;2023-04-03T11:21:52;3.80;99.90
490;DHT22;231;48.120;11.576;2023-04-03T11:24:24;4.10;99.90
490;DHT22;231;48.120;11.576;2023-04-03T11:26:54;4.50;99.90
490;DHT22;231;48.120;11.576;2023-04-03T11:29:25;4.70;99.90
490;DHT22;231;48.120;11.576;2023-04-03T11:32:06;4.90;99.90
490;DHT22;231;48.120;11.576;2023-04-03T11:34:36;5.10;99.90
490;DHT22;231;48.120;11.576;2023-04-03T11:37:13;5.10;99.90
490;DHT22;231;48.120;11.576;2023-04-03T11:39:49;5.10;99.90
490;DHT22;231;48.120;11.576;2023-04-03T11:42:24;5.10;99.90
490;DHT22;231;48.120;11.576;2023-04-03T11:45:29;5.30;99.90
490;DHT22;231;48.120;11.576;2023-04-03T11:48:00;5.60;99.90
490;DHT22;231;48.120;11.576;2023-04-03T11:50:44;5.60;97.90
490;DHT22;231;48.120;11.576;2023-04-03T11:53:29;5.60;98.20
490;DHT22;231;48.120;11.576;2023-04-03T11:55:59;5.70;99.90
490;DHT22;231;48.120;11.576;2023-04-03T11:58:27;5.90;99.90
490;DHT22;231;48.120;11.576;2023-04-03T12:04:05;6.00;99.90
490;DHT22;231;48.120;11.576;2023-04-03T12:06:50;6.30;99.90
490;DHT22;231;48.120;11.576;2023-04-03T12:09:34;6.40;93.30
490;DHT22;231;48.120;11.576;2023-04-03T12:12:22;6.50;93.10
490;DHT22;231;48.120;11.576;2023-04-03T12:14:51;6.50;92.40
490;DHT22;231;48.120;11.576;2023-04-03T12:17:22;6.50;82.20
490;DHT22;231;48.120;11.576;2023-04-03T12:19:52;6.50;75.40
490;DHT22;231;48.120;11.576;2023-04-03T12:22:20;6.30;75.00
490;DHT22;231;48.120;11.576;2023-04-03T12:24:48;6.30;76.60
490;DHT22;231;48.120;11.576;2023-04-03T12:27:28;6.20;79.60
490;DHT22;231;48.120;11.576;2023-04-03T12:30:05;6.10;69.10
490;DHT22;231;48.120;11.576;2023-04-03T12:33:02;6.20;92.70
490;DHT22;231;48.120;11.576;2023-04-03T12:35:37;6.50;99.90
490;DHT22;231;48.120;11.576;2023-04-03T12:38:30;6.80;99.90
490;DHT22;231;48.120;11.576;2023-04-03T12:41:18;6.80;94.90
490;DHT22;231;48.120;11.576;2023-04-03T12:43:55;7.10;96.90
490;DHT22;231;48.120;11.576;2023-04-03T12:46:24;7.10;81.10
490;DHT22;231;48.120;11.576;2023-04-03T12:48:55;7.10;76.60
490;DHT22;231;48.120;11.576;2023-04-03T12:51:30;7.50;98.50
490;DHT22;231;48.120;11.576;2023-04-03T12:54:03;8.00;99.90
490;DHT22;231;48.120;11.576;2023-04-03T12:56:32;8.70;99.90
490;DHT22;231;48.120;11.576;2023-04-03T12:59:14;9.20;99.90
490;DHT22;231;48.120;11.576;2023-04-03T13:01:42;9.80;99.90
490;DHT22;231;48.120;11.576;2023-04-03T13:04:10;10.10;99.90
490;DHT22;231;48.120;11.576;2023-04-03T13:06:41;10.50;99.90
490;DHT22;231;48.120;11.576;2023-04-03T13:09:19;10.20;95.40
490;DHT22;231;48.120;11.576;2023-04-03T13:11:48;10.00;95.00
490;DHT22;231;48.120;11.576;2023-04-03T13:14:18;10.00;97.30
490;DHT22;231;48.120;11.576;2023-04-03T13:16:53;9.80;90.60
490;DHT22;231;48.120;11.576;2023-04-03T13:19:21;9.80;99.40
490;DHT22;231;48.120;11.576;2023-04-03T13:21:53;9.80;97.10
490;DHT22;231;48.120;11.576;2023-04-03T13:24:23;9.70;77.70
490;DHT22;231;48.120;11.576;2023-04-03T13:26:51;9.30;56.00
490;DHT22;231;48.120;11.576;2023-04-03T13:29:23;9.00;70.90
490;DHT22;231;48.120;11.576;2023-04-03T13:31:53;9.10;92.40
490;DHT22;231;48.120;11.576;2023-04-03T13:34:22;9.30;95.80
490;DHT22;231;48.120;11.576;2023-04-03T13:36:58;9.30;90.60
490;DHT22;231;48.120;11.576;2023-04-03T13:39:28;9.30;88.90
490;DHT22;231;48.120;11.576;2023-04-03T13:41:56;9.30;64.00
490;DHT22;231;48.120;11.576;2023-04-03T13:44:29;9.10;59.50
490;DHT22;231;48.120;11.576;2023-04-03T13:46:58;8.80;66.00
490;DHT22;231;48.120;11.576;2023-04-03T13:49:31;8.40;51.40
490;DHT22;231;48.120;11.576;2023-04-03T13:52:00;8.20;64.40
490;DHT22;231;48.120;11.576;2023-04-03T13:54:31;8.00;52.00
490;DHT22;231;48.120;11.576;2023-04-03T13:57:00;7.80;36.70
490;DHT22;231;48.120;11.576;2023-04-03T13:59:29;7.70;39.20
490;DHT22;231;48.120;11.576;2023-04-03T14:02:13;7.70;28.30
490;DHT22;231;48.120;11.576;2023-04-03T14:04:51;7.70;28.80
490;DHT22;231;48.120;11.576;2023-04-03T14:07:23;7.60;25.00
490;DHT22;231;48.120;11.576;2023-04-03T14:09:51;7.70;18.50
490;DHT22;231;48.120;11.576;2023-04-03T14:12:21;7.80;15.50
490;DHT22;231;48.120;11.576;2023-04-03T14:14:51;7.90;10.50
490;DHT22;231;48.120;11.576;2023-04-03T14:17:20;8.10;7.70
490;DHT22;231;48.120;11.576;2023-04-03T14:19:48;8.10;7.10
490;DHT22;231;48.120;11.576;2023-04-03T14:22:19;8.00;4.80
490;DHT22;231;48.120;11.576;2023-04-03T14:24:49;8.00;5.40
490;DHT22;231;48.120;11.576;2023-04-03T14:27:18;8.10;4.80
490;DHT22;231;48.120;11.576;2023-04-03T14:29:46;8.10;3.90
490;DHT22;231;48.120;11.576;2023-04-03T14:32:14;8.30;3.90
490;DHT22;231;48.120;11.576;2023-04-03T14:34:42;8.60;4.10
490;DHT22;231;48.120;11.576;2023-04-03T14:37:11;8.80;2.00
490;DHT22;231;48.120;11.576;2023-04-03T14:39:38;9.00;1.30
490;DHT22;231;48.120;11.576;2023-04-03T14:42:12;9.10;1.00
490;DHT22;231;48.120;11.576;2023-04-03T14:44:39;8.90;1.00
490;DHT22;231;48.120;11.576;2023-04-03T14:47:10;8.70;1.00
490;DHT22;231;48.120;11.576;2023-04-03T14:49:37;8.50;1.00
490;DHT22;231;48.120;11.576;2023-04-03T14:52:04;8.30;1.00
490;DHT22;231;48.120;11.576;2023-04-03T14:54:30;8.20;1.00
490;DHT22;231;48.120;11.576;2023-04-03T14:56:59;8.00;1.00
490;DHT22;231;48.120;11.576;2023-04-03T14:59:28;7.90;1.40
490;DHT22;231;48.120;11.576;2023-04-03T15:01:55;7.90;1.60
490;DHT22;231;48.120;11.576;2023-04-03T15:04:22;7.90;1.30
490;DHT22;231;48.120;11.576;2023-04-03T15:06:52;7.80;1.40
490;DHT22;231;48.120;11.576;2023-04-03T15:09:21;7.90;1.90
490;DHT22;231;48.120;11.576;2023-04-03T15:11:48;7.90;1.40
490;DHT22;231;48.120;11.576;2023-04-03T15:14:15;7.90;1.40
490;DHT22;231;48.120;11.576;2023-04-03T15:16:43;7.90;1.00
490;DHT22;231;48.120;11.576;2023-04-03T15:19:11;7.80;1.00
490;DHT22;231;48.120;11.576;2023-04-03T15:21:38;7.50;1.00
490;DHT22;231;48.120;11.576;2023-04-03T15:24:05;7.20;1.00
490;DHT22;231;48.120;11.576;2023-04-03T15:26:33;7.00;1.00
490;DHT22;231;48.120;11.576;2023-04-03T15:28:59;6.90;1.00
490;DHT22;231;48.120;11.576;2023-04-03T15:31:27;6.80;1.00
490;DHT22;231;48.120;11.576;2023-04-03T15:33:55;6.70;1.00
490;DHT22;231;48.120;11.576;2023-04-03T15:36:22;6.60;1.00
490;DHT22;231;48.120;11.576;2023-04-03T15:38:49;6.50;1.00
490;DHT22;231;48.120;11.576;2023-04-03T15:41:16;6.40;1.00
490;DHT22;231;48.120;11.576;2023-04-03T15:43:43;6.40;1.00
490;DHT22;231;48.120;11.576;2023-04-03T15:46:09;6.30;1.00
490;DHT22;231;48.120;11.576;2023-04-03T15:48:36;6.30;1.00
490;DHT22;231;48.120;11.576;2023-04-03T15:51:05;6.20;1.00
490;DHT22;231;48.120;11.576;2023-04-03T15:53:32;6.10;1.00
490;DHT22;231;48.120;11.576;2023-04-03T15:55:59;6.00;1.00
490;DHT22;231;48.120;11.576;2023-04-03T15:58:26;5.90;1.00
490;DHT22;231;48.120;11.576;2023-04-03T16:00:52;5.70;1.00
490;DHT22;231;48.120;11.576;2023-04-03T16:03:21;5.50;1.00
490;DHT22;231;48.120;11.576;2023-04-03T16:05:49;5.40;1.00
490;DHT22;231;48.120;11.576;2023-04-03T16:08:18;5.20;1.00
490;DHT22;231;48.120;11.576;2023-04-03T16:10:45;5.10;1.00
490;DHT22;231;48.120;11.576;2023-04-03T16:13:13;5.00;1.00
490;DHT22;231;48.120;11.576;2023-04-03T16:15:40;4.90;1.00
490;DHT22;231;48.120;11.576;2023-04-03T16:18:09;4.90;1.40
490;DHT22;231;48.120;11.576;2023-04-03T16:20:36;4.80;1.70
490;DHT22;231;48.120;11.576;2023-04-03T16:23:03;4.70;2.30
490;DHT22;231;48.120;11.576;2023-04-03T16:25:31;4.70;2.30
490;DHT22;231;48.120;11.576;2023-04-03T16:27:58;4.60;2.60
490;DHT22;231;48.120;11.576;2023-04-03T16:30:25;4.60;3.10
490;DHT22;231;48.120;11.576;2023-04-03T16:32:52;4.60;3.10
490;DHT22;231;48.120;11.576;2023-04-03T16:35:21;4.50;3.00
490;DHT22;231;48.120;11.576;2023-04-03T16:37:47;4.50;3.00
490;DHT22;231;48.120;11.576;2023-04-03T16:40:14;4.60;3.00
490;DHT22;231;48.120;11.576;2023-04-03T16:42:42;4.60;3.00
490;DHT22;231;48.120;11.576;2023-04-03T16:45:10;4.60;2.90
490;DHT22;231;48.120;11.576;2023-04-03T16:47:36;4.70;2.70
490;DHT22;231;48.120;11.576;2023-04-03T16:50:04;4.70;2.30
490;DHT22;231;48.120;11.576;2023-04-03T16:52:31;4.80;2.30
490;DHT22;231;48.120;11.576;2023-04-03T16:54:58;4.80;1.60
490;DHT22;231;48.120;11.576;2023-04-03T16:57:25;4.80;1.50
490;DHT22;231;48.120;11.576;2023-04-03T16:59:54;4.80;1.70